createdAt,value
2023-05-13T00:03:06.144Z,100619.09
2023-05-13T00:08:07.451Z,100607.47
2023-05-13T00:13:06.424Z,100600.59
2023-05-13T00:18:05.361Z,100609.91
2023-05-13T00:23:04.178Z,100599.88
2023-05-13T00:28:03.159Z,100604.31
2023-05-13T00:33:02.052Z,100605.00
2023-05-13T00:38:01.131Z,100598.72
2023-05-13T00:42:59.970Z,100598.19
2023-05-13T00:47:59.688Z,100607.13
2023-05-13T00:52:59.908Z,100604.75
2023-05-13T00:57:58.972Z,100609.22
2023-05-13T01:03:23.102Z,100605.09
2023-05-13T01:08:32.186Z,100600.97
2023-05-13T01:13:43.403Z,100606.63
2023-05-13T01:18:59.852Z,100614.88
2023-05-13T01:23:59.608Z,100617.59
2023-05-13T01:28:58.936Z,100624.19
2023-05-13T01:33:58.340Z,100625.22
2023-05-13T01:38:58.644Z,100627.97
2023-05-13T01:44:00.628Z,100643.16
2023-05-13T01:49:00.526Z,100639.03
2023-05-13T01:54:00.673Z,100634.44
2023-05-13T01:59:00.297Z,100641.13
2023-05-13T02:04:02.433Z,100643.06
2023-05-13T02:09:02.408Z,100646.00
2023-05-13T02:14:01.528Z,100646.75
2023-05-13T02:19:00.406Z,100649.06
2023-05-13T02:24:00.480Z,100644.69
2023-05-13T02:29:01.138Z,100647.41
2023-05-13T02:34:01.581Z,100653.88
2023-05-13T02:39:00.962Z,100638.47
2023-05-13T02:43:59.915Z,100640.06
2023-05-13T02:48:59.732Z,100639.69
2023-05-13T02:54:01.719Z,100644.78
2023-05-13T02:59:02.177Z,100640.94
2023-05-13T03:04:01.342Z,100642.69
2023-05-13T03:09:00.088Z,100645.97
2023-05-13T03:13:59.017Z,100647.75
2023-05-13T03:18:57.813Z,100660.66
2023-05-13T03:23:58.257Z,100656.47
2023-05-13T03:28:57.230Z,100645.66
2023-05-13T03:33:56.381Z,100659.50
2023-05-13T03:38:55.470Z,100657.81
2023-05-13T03:43:54.990Z,100661.75
2023-05-13T03:48:55.955Z,100649.84
2023-05-13T03:53:55.360Z,100662.00
2023-05-13T03:58:54.419Z,100661.81
2023-05-13T04:03:53.364Z,100671.84
2023-05-13T04:08:52.293Z,100670.63
2023-05-13T04:13:51.126Z,100675.66
2023-05-13T04:18:50.088Z,100670.34
2023-05-13T04:23:49.016Z,100667.53
2023-05-13T04:28:47.808Z,100677.19
2023-05-13T04:33:47.084Z,100680.59
2023-05-13T04:38:46.211Z,100679.47
2023-05-13T04:43:46.074Z,100683.44
2023-05-13T04:48:48.395Z,100694.03
2023-05-13T04:53:48.285Z,100695.78
2023-05-13T04:58:47.499Z,100696.03
2023-05-13T05:03:47.413Z,100705.72
2023-05-13T05:08:46.321Z,100707.13
2023-05-13T05:13:45.601Z,100704.31
2023-05-13T05:18:44.578Z,100706.19
2023-05-13T05:23:43.685Z,100702.72
2023-05-13T05:28:43.789Z,100709.84
2023-05-13T05:33:44.406Z,100710.28
2023-05-13T05:38:43.752Z,100714.16
2023-05-13T05:43:43.642Z,100717.22
2023-05-13T05:48:42.468Z,100714.00
2023-05-13T05:53:42.305Z,100718.94
2023-05-13T05:58:43.661Z,100714.09
2023-05-13T06:03:42.579Z,100713.22
2023-05-13T06:08:41.496Z,100713.78
2023-05-13T06:13:40.357Z,100711.50
2023-05-13T06:18:39.427Z,100709.91
2023-05-13T06:23:38.405Z,100711.78
2023-05-13T06:28:37.340Z,100710.91
2023-05-13T06:33:36.377Z,100711.94
2023-05-13T06:38:35.892Z,100712.16
2023-05-13T06:43:35.242Z,100707.28
2023-05-13T06:48:53.731Z,100709.47
2023-05-13T06:53:53.449Z,100709.66
2023-05-13T06:58:53.373Z,100702.31
2023-05-13T07:03:52.284Z,100693.25
2023-05-13T07:08:51.428Z,100691.59
2023-05-13T07:13:50.347Z,100688.13
2023-05-13T07:18:49.315Z,100685.38
2023-05-13T07:23:48.083Z,100685.63
2023-05-13T07:28:47.060Z,100684.84
2023-05-13T07:33:45.912Z,100684.75
2023-05-13T07:38:44.827Z,100681.34
2023-05-13T07:43:43.833Z,100677.66
2023-05-13T07:48:42.583Z,100678.91
2023-05-13T07:53:41.362Z,100680.00
2023-05-13T07:58:40.200Z,100676.03
2023-05-13T08:03:39.165Z,100667.16
2023-05-13T08:08:38.079Z,100668.81
2023-05-13T08:13:37.027Z,100666.97
2023-05-13T08:18:35.858Z,100670.94
2023-05-13T08:23:44.950Z,100662.06
2023-05-13T08:28:44.907Z,100663.44
2023-05-13T08:33:46.099Z,100656.50
2023-05-13T08:38:44.912Z,100660.91
2023-05-13T08:43:44.622Z,100654.00
2023-05-13T08:48:44.104Z,100659.19
2023-05-13T08:53:48.490Z,100659.47
2023-05-13T08:58:47.583Z,100663.66
2023-05-13T09:03:55.144Z,100660.09
2023-05-13T09:08:54.605Z,100665.66
2023-05-13T09:13:58.729Z,100658.91
2023-05-13T09:18:59.994Z,100667.31
2023-05-13T09:24:08.846Z,100665.31
2023-05-13T09:29:29.211Z,100653.78
2023-05-13T09:34:33.320Z,100664.00
2023-05-13T09:39:41.190Z,100669.69
2023-05-13T09:44:40.096Z,100668.91
2023-05-13T09:49:38.983Z,100657.66
2023-05-13T09:54:38.898Z,100676.19
2023-05-13T09:59:37.742Z,100659.03
2023-05-13T10:04:37.079Z,100649.34
2023-05-13T10:09:37.445Z,100647.91
2023-05-13T10:14:38.079Z,100650.44
2023-05-13T10:19:41.045Z,100657.84
2023-05-13T10:24:41.642Z,100662.19
2023-05-13T10:29:42.489Z,100649.34
2023-05-13T10:34:43.753Z,100653.34
2023-05-13T10:40:16.137Z,100649.63
2023-05-13T10:45:16.870Z,100647.34
2023-05-13T10:50:26.155Z,100647.69
2023-05-13T10:55:27.354Z,100662.53
2023-05-13T11:00:31.540Z,100669.38
2023-05-13T11:05:30.344Z,100674.88
2023-05-13T11:10:32.744Z,100682.31
2023-05-13T11:15:50.747Z,100685.88
2023-05-13T11:20:54.045Z,100689.63
2023-05-13T11:26:16.309Z,100685.91
2023-05-13T11:31:17.254Z,100692.59
2023-05-13T11:36:16.223Z,100694.19
2023-05-13T11:41:15.117Z,100688.47
2023-05-13T11:46:23.006Z,100692.78
2023-05-13T11:51:22.183Z,100697.91
2023-05-13T11:56:26.654Z,100705.69
2023-05-13T12:01:25.591Z,100703.56
2023-05-13T12:06:24.337Z,100713.09
2023-05-13T12:11:24.503Z,100714.59
2023-05-13T12:16:24.427Z,100719.75
2023-05-13T12:21:23.269Z,100740.56
2023-05-13T12:26:22.164Z,100730.06
2023-05-13T12:31:24.051Z,100738.31
2023-05-13T12:36:35.988Z,100741.97
2023-05-13T12:41:37.293Z,100750.88
2023-05-13T12:46:37.252Z,100749.25
2023-05-13T12:51:36.084Z,100746.28
2023-05-13T12:56:35.043Z,100744.94
2023-05-13T13:01:34.148Z,100745.25
2023-05-13T13:06:33.718Z,100744.16
2023-05-13T13:11:32.480Z,100747.75
2023-05-13T13:16:31.945Z,100743.81
2023-05-13T13:21:30.851Z,100736.47
2023-05-13T13:26:29.725Z,100726.63
2023-05-13T13:31:28.775Z,100735.16
2023-05-13T13:36:27.617Z,100734.91
2023-05-13T13:41:26.566Z,100742.22
2023-05-13T13:46:25.540Z,100735.28
2023-05-13T13:51:24.737Z,100747.59
2023-05-13T13:56:23.972Z,100738.94
2023-05-13T14:01:23.662Z,100736.41
2023-05-13T14:06:22.939Z,100736.41
2023-05-13T14:11:21.891Z,100731.09
2023-05-13T14:16:20.697Z,100736.59
2023-05-13T14:21:19.873Z,100730.53
2023-05-13T14:26:19.114Z,100725.28
2023-05-13T14:31:18.055Z,100715.06
2023-05-13T14:36:16.954Z,100720.53
2023-05-13T14:41:20.945Z,100726.44
2023-05-13T14:46:23.029Z,100713.50
2023-05-13T14:51:21.946Z,100723.75
2023-05-13T14:56:21.078Z,100714.59
2023-05-13T15:01:20.075Z,100712.47
2023-05-13T15:06:19.395Z,100710.19
2023-05-13T15:11:18.382Z,100718.28
2023-05-13T15:16:17.186Z,100715.72
2023-05-13T15:21:16.537Z,100717.00
2023-05-13T15:26:15.760Z,100726.22
2023-05-13T15:31:14.969Z,100743.28
2023-05-13T15:36:13.911Z,100738.16
2023-05-13T15:41:12.802Z,100731.56
2023-05-13T15:46:11.653Z,100729.69
2023-05-13T15:51:10.584Z,100729.13
2023-05-13T15:56:09.397Z,100721.22
2023-05-13T16:01:08.146Z,100708.38
2023-05-13T16:06:07.321Z,100711.13
2023-05-13T16:11:06.477Z,100719.81
2023-05-13T16:16:06.204Z,100717.63
2023-05-13T16:21:05.532Z,100706.94
2023-05-13T16:26:04.488Z,100694.03
2023-05-13T16:31:03.217Z,100698.97
2023-05-13T16:36:02.050Z,100696.81
2023-05-13T16:41:01.541Z,100688.00
2023-05-13T16:46:00.350Z,100677.66
2023-05-13T16:50:59.171Z,100672.19
2023-05-13T16:55:58.567Z,100669.75
2023-05-13T17:00:59.235Z,100669.50
2023-05-13T17:05:58.331Z,100677.63
2023-05-13T17:10:57.162Z,100676.84
2023-05-13T17:15:56.177Z,100679.91
2023-05-13T17:20:55.153Z,100681.81
2023-05-13T17:25:54.140Z,100686.72
2023-05-13T17:30:53.177Z,100680.38
2023-05-13T17:35:52.556Z,100685.50
2023-05-13T17:40:51.928Z,100678.88
2023-05-13T17:45:50.851Z,100684.84
2023-05-13T17:50:49.665Z,100684.63
2023-05-13T17:55:48.759Z,100675.03
2023-05-13T18:00:48.921Z,100682.03
2023-05-13T18:05:48.337Z,100680.13
2023-05-13T18:10:48.505Z,100681.28
2023-05-13T18:15:47.962Z,100678.63
2023-05-13T18:20:47.226Z,100679.69
2023-05-13T18:25:55.041Z,100675.31
2023-05-13T18:30:54.806Z,100678.03
2023-05-13T18:35:53.958Z,100679.81
2023-05-13T18:40:52.732Z,100679.72
2023-05-13T18:45:51.522Z,100674.81
2023-05-13T18:50:51.334Z,100693.69
2023-05-13T18:55:50.278Z,100696.41
2023-05-13T19:00:49.217Z,100700.69
2023-05-13T19:05:48.049Z,100704.13
2023-05-13T19:10:46.857Z,100709.78
2023-05-13T19:15:45.948Z,100716.56
2023-05-13T19:20:46.378Z,100715.41
2023-05-13T19:25:46.118Z,100717.56
2023-05-13T19:30:45.391Z,100712.75
2023-05-13T19:35:44.835Z,100711.94
2023-05-13T19:40:45.386Z,100717.09
2023-05-13T19:45:44.142Z,100706.50
2023-05-13T19:50:42.883Z,100709.34
2023-05-13T19:55:41.732Z,100723.06
2023-05-13T20:00:40.539Z,100729.16
2023-05-13T20:05:42.619Z,100720.09
2023-05-13T20:10:41.394Z,100721.09
2023-05-13T20:15:40.911Z,100721.16
2023-05-13T20:20:41.601Z,100723.00
2023-05-13T20:25:40.502Z,100712.78
2023-05-13T20:30:45.577Z,100711.84
2023-05-13T20:35:44.340Z,100711.38
2023-05-13T20:40:43.064Z,100712.47
2023-05-13T20:45:41.978Z,100723.06
2023-05-13T20:50:40.986Z,100712.34
2023-05-13T20:55:39.707Z,100715.41
2023-05-13T21:00:38.437Z,100721.47
2023-05-13T21:05:37.583Z,100712.47
2023-05-13T21:10:36.412Z,100705.75
2023-05-13T21:15:35.347Z,100714.34
2023-05-13T21:20:34.459Z,100717.38
2023-05-13T21:25:34.305Z,100716.06
2023-05-13T21:30:33.626Z,100719.03
2023-05-13T21:35:32.507Z,100718.63
2023-05-13T21:40:31.327Z,100710.97
2023-05-13T21:45:30.790Z,100717.13
2023-05-13T21:50:29.683Z,100711.22
2023-05-13T21:55:28.914Z,100709.31
2023-05-13T22:00:27.741Z,100712.38
2023-05-13T22:05:26.581Z,100707.84
2023-05-13T22:10:25.647Z,100711.81
2023-05-13T22:15:24.509Z,100703.66
2023-05-13T22:20:24.570Z,100705.53
2023-05-13T22:25:23.783Z,100705.91
2023-05-13T22:30:23.247Z,100714.50
2023-05-13T22:35:22.627Z,100708.09
2023-05-13T22:40:21.708Z,100700.31
2023-05-13T22:45:20.563Z,100700.44
2023-05-13T22:50:19.667Z,100696.34
2023-05-13T22:55:18.452Z,100694.06
2023-05-13T23:00:17.556Z,100691.53
2023-05-13T23:05:16.440Z,100690.59
2023-05-13T23:10:15.282Z,100681.22
2023-05-13T23:15:16.040Z,100685.19
2023-05-13T23:20:14.954Z,100676.63
2023-05-13T23:25:13.876Z,100670.63
2023-05-13T23:30:13.159Z,100666.88
2023-05-13T23:35:12.696Z,100666.63
2023-05-13T23:40:11.764Z,100652.28
2023-05-13T23:45:11.046Z,100662.00
2023-05-13T23:50:10.444Z,100649.50
2023-05-13T23:55:11.743Z,100643.97
